• Join FlightAware (Why Join?)
  • Login
  • US Flag 
03:56PM EDT


 

Airport Tracker/Info


-or-


 

Live Flight TrackerFlight Track Log ✈ FFT908 ✈ 23-Jul-2013 ✈ KMDW - KTTN

Flight Track Log - Related Links

Times and Time Zones

All times are in EDT time to prevent confusion due to time zone crossing. See the FFT908 flight status page for this flight to view local times or setup timezone preferences in your user account.

Time Position Orientation Groundspeed Altitude Reporting Facility
EDT Latitude Longitude Course Direction KTS MPH feet Rate Location/Type
03:12PM 41.7970 -87.7370 51° Northeast 134 154 1,800  Level FlightAware
03:12PM 41.7990 -87.7230 79° East 139 160 2,500 1,680 Climbing FlightAware
03:13PM 41.7990 -87.7000 90° East 170 196 3,000 720 Climbing FlightAware
03:13PM 41.7980 -87.6600 92° East 236 272 3,200 840 Climbing FlightAware
03:14PM 41.7980 -87.6170 90° East 280 322 3,800 1,920 Climbing FlightAware
03:14PM 41.8010 -87.5960 79° East 281 323 4,400 1,920 Climbing FlightAware
03:14PM 41.8110 -87.5580 71° East 281 323 5,000 720 Climbing FlightAware
03:15PM 41.8240 -87.5090 70° East 286 329 5,100 60 Climbing FlightAware
03:15PM 41.8340 -87.4610 74° East 289 333 5,100 1,680 Level FlightAware
03:16PM 41.8260 -87.3870 98° East 294 338 7,100 3,000 Climbing FlightAware
03:16PM 41.8160 -87.3350 104° East 301 346 8,600 2,760 Climbing FlightAware
03:17PM 41.8060 -87.2840 105° East 317 365 9,700 2,520 Climbing FlightAware
03:18PM 41.7900 -87.2030 105° East 328 377 11,600 2,700 Climbing FlightAware
03:18PM 41.7730 -87.1190 105° East 339 390 13,500 2,400 Climbing FlightAware
03:19PM 41.7630 -86.9910 96° East 353 406 15,800 2,340 Climbing FlightAware
03:20PM 41.7640 -86.8850 89° East 362 417 17,700 1,800 Climbing FlightAware
03:21PM 41.7650 -86.7990 89° East 392 451 18,400 1,260 Climbing FlightAware
03:21PM 41.7660 -86.6850 89° East 418 481 19,500 1,620 Climbing FlightAware
03:22PM 41.7670 -86.5730 89° East 432 497 20,800 1,920 Climbing FlightAware
03:23PM 41.7680 -86.4680 89° East 438 504 22,200 1,740 Climbing FlightAware
03:24PM 41.7690 -86.3400 89° East 457 526 23,300 1,620 Climbing FlightAware
03:24PM 41.7700 -86.2240 89° East 457 526 24,600 1,680 Climbing FlightAware
03:25PM 41.7710 -86.1110 89° East 469 540 25,600 1,500 Climbing FlightAware
03:26PM 41.7730 -85.9850 89° East 477 549 26,700 1,500 Climbing FlightAware
03:26PM 41.7740 -85.8700 89° East 484 557 27,700 1,500 Climbing FlightAware
03:27PM 41.7750 -85.7340 89° East 490 564 28,800 1,320 Climbing FlightAware
03:28PM 41.7760 -85.6160 89° East 499 574 29,500 1,080 Climbing FlightAware
03:28PM 41.7760 -85.5080 90° East 505 581 30,200 1,260 Climbing FlightAware
03:29PM 41.7770 -85.3710 89° East 510 587 31,200 1,140 Climbing FlightAware
03:30PM 41.7780 -85.2380 89° East 517 595 31,900 900 Climbing FlightAware
03:31PM 41.7750 -85.0520 91° East 533 613 32,800 1,080 Climbing FlightAware
03:31PM 41.7560 -84.9210 101° East 536 617 33,700 1,440 Climbing FlightAware
03:32PM 41.7330 -84.7890 103° East 530 610 34,800 1,800 Climbing FlightAware
03:33PM 41.7100 -84.6560 103° East 511 588 36,200 1,680 Climbing FlightAware
03:33PM 41.6910 -84.5470 103° East 485 558 37,000 540 Climbing FlightAware
03:34PM 41.6670 -84.4150 104° East 488 562 37,000  Level FlightAware
03:35PM 41.6380 -84.2530 103° East 488 562 37,000  Level FlightAware
03:36PM 41.6160 -84.1330 104° East 486 559 37,000  Level FlightAware
03:36PM 41.5940 -84.0140 104° East 485 558 37,000  Level FlightAware
03:37PM 41.5700 -83.8840 104° East 483 556 37,000  Level FlightAware
03:38PM 41.5490 -83.7670 103° East 482 555 37,000  Level FlightAware
03:39PM 41.5240 -83.6420 105° East 478 550 37,000  Level FlightAware
03:39PM 41.4850 -83.5350 116° Southeast 475 547 37,000  Level FlightAware
03:40PM 41.4420 -83.4300 119° Southeast 476 548 37,000  Level FlightAware
03:41PM 41.3960 -83.3190 119° Southeast 476 548 37,000  Level FlightAware
03:41PM 41.3540 -83.2180 119° Southeast 478 550 37,000 60 Level FlightAware
03:42PM 41.3160 -83.1250 119° Southeast 479 551 37,100 60 Climbing FlightAware
03:43PM 41.2680 -83.0190 121° Southeast 475 547 37,100 -120 Level FlightAware
03:43PM 41.2240 -82.9220 121° Southeast 474 545 37,000 -120 Descending FlightAware
03:44PM 41.1710 -82.8040 121° Southeast 473 544 37,000  Level FlightAware
03:45PM 41.1320 -82.7160 120° Southeast 473 544 37,000  Level FlightAware
03:45PM 41.0800 -82.5990 120° Southeast 473 544 37,000  Level FlightAware
03:46PM 41.0340 -82.4980 121° Southeast 474 545 37,000  Level FlightAware
03:47PM 40.9910 -82.4020 121° Southeast 474 545 37,000  Level FlightAware
03:47PM 40.9420 -82.3060 124° Southeast 473 544 37,000  Level FlightAware
03:48PM 40.8900 -82.2070 125° Southeast 474 545 37,000  Level FlightAware
03:49PM 40.8390 -82.1080 124° Southeast 474 545 37,000  Level FlightAware
03:49PM 40.7850 -82.0010 124° Southeast 474 545 37,000  Level FlightAware
03:50PM 40.7360 -81.9050 124° Southeast 474 545 37,000  Level FlightAware
03:51PM 40.6870 -81.8090 124° Southeast 472 543 37,000  Level FlightAware
03:52PM 40.6350 -81.7070 124° Southeast 472 543 37,000  Level FlightAware
03:52PM 40.5830 -81.6030 123° Southeast 478 550 37,000  Level FlightAware
03:53PM 40.5330 -81.5040 124° Southeast 477 549 37,000  Level FlightAware
03:54PM 40.4940 -81.3850 113° Southeast 489 563 37,000  Level FlightAware
03:54PM 40.4840 -81.2610 96° East 490 564 37,000  Level FlightAware
03:55PM 40.4770 -81.1440 94° East 493 567 37,000  Level FlightAware
03:56PM 40.4700 -81.0190 94° East 497 572 37,000 60 Level FlightAware
03:56PM 40.4620 -80.8930 95° East 496 571 37,100 60 Climbing FlightAware
03:57PM 40.4530 -80.7530 95° East 492 566 37,100  Level FlightAware
03:58PM 40.4430 -80.5980 95° East 483 556 37,100 -120 Level FlightAware
03:59PM 40.4360 -80.4800 94° East 479 551 37,000 -120 Descending FlightAware
04:00PM 40.4270 -80.3460 95° East 474 545 37,000  Level FlightAware
04:00PM 40.4190 -80.2320 95° East 472 543 37,000  Level FlightAware
04:01PM 40.4110 -80.1140 95° East 469 540 37,000  Level FlightAware
04:02PM 40.4030 -79.9940 95° East 467 537 37,000  Level FlightAware
04:02PM 40.3950 -79.8770 95° East 467 537 37,000  Level FlightAware
04:03PM 40.3870 -79.7680 95° East 469 540 37,000 -240 Level FlightAware
04:04PM 40.3840 -79.6410 92° East 473 544 36,700 -540 Descending FlightAware
04:04PM 40.3820 -79.5250 91° East 473 544 36,300 -540 Descending FlightAware
04:05PM 40.3790 -79.3960 92° East 471 542 36,000 -540 Descending FlightAware
04:06PM 40.3760 -79.2810 92° East 469 540 35,600 -720 Descending FlightAware
04:06PM 40.3730 -79.1670 92° East 463 533 35,100 -1,200 Descending FlightAware
04:07PM 40.3720 -79.0430 91° East 462 532 33,900 -1,740 Descending FlightAware
04:08PM 40.3690 -78.9370 92° East 456 525 32,700 -2,040 Descending FlightAware
04:09PM 40.3650 -78.8110 92° East 450 518 31,100 -2,040 Descending FlightAware
04:09PM 40.3620 -78.6920 92° East 442 509 29,700 -1,980 Descending FlightAware
04:10PM 40.3590 -78.5880 92° East 434 499 28,400 -2,040 Descending FlightAware
04:11PM 40.3550 -78.4590 92° East 423 487 26,700 -2,040 Descending FlightAware
04:12PM 40.3510 -78.3220 92° East 415 478 24,900 -1,740 Descending FlightAware
04:12PM 40.3480 -78.2320 92° East 417 480 24,000 -660 Descending FlightAware
04:13PM 40.3450 -78.1420 92° East 392 451 24,000  Level FlightAware
04:15PM 40.3340 -77.8450 93° East 399 459 24,000  Level FlightAware
04:16PM 40.3300 -77.7360 93° East 399 459 24,000 -360 Level FlightAware
04:16PM 40.3260 -77.6390 93° East 397 457 23,500 -840 Descending FlightAware
04:17PM 40.3220 -77.5470 93° East 393 452 22,900 -1,020 Descending FlightAware
04:21PM 40.2900 -77.0170 94° East 407 468 19,100 -1,020 Descending FlightAware
04:22PM 40.2580 -76.8780 107° East 398 458 18,100 -1,080 Descending FlightAware
04:23PM 40.2360 -76.7860 107° East 394 453 17,400 -1,380 Descending FlightAware
04:23PM 40.2130 -76.6860 107° East 382 440 16,200 -1,800 Descending FlightAware
04:24PM 40.1960 -76.6100 106° East 377 434 15,100 -1,980 Descending FlightAware
04:25PM 40.1740 -76.5190 108° East 367 422 13,700 -2,220 Descending FlightAware
04:25PM 40.1550 -76.4390 107° East 351 404 12,100 -2,040 Descending FlightAware
04:26PM 40.1340 -76.3520 107° East 315 362 10,900 -1,920 Descending FlightAware
04:26PM 40.1230 -76.3030 106° East 311 358 9,800 -1,980 Descending FlightAware
04:27PM 40.1180 -76.2500 97° East 308 354 9,100 -1,500 Descending FlightAware
04:27PM 40.1140 -76.1970 96° East 302 348 8,400 -1,620 Descending FlightAware
04:28PM 40.1100 -76.1460 96° East 302 348 7,600 -1,200 Descending FlightAware
04:28PM 40.1070 -76.0950 94° East 301 346 7,300 -360 Descending FlightAware
04:29PM 40.1040 -76.0510 95° East 301 346 7,300  Level FlightAware
04:29PM 40.1160 -75.9970 74° East 299 344 7,300  Level FlightAware
04:30PM 40.1290 -75.9510 70° East 302 348 7,300  Level FlightAware
04:30PM 40.1500 -75.9100 56° Northeast 294 338 7,300 -720 Level FlightAware
04:31PM 40.1690 -75.8730 56° Northeast 296 341 6,700 -900 Descending FlightAware
04:31PM 40.1900 -75.8000 69° East 297 342 6,300 -360 Descending FlightAware
04:32PM 40.2020 -75.7580 69° East 297 342 6,300 -180 Level FlightAware
04:32PM 40.2070 -75.7250 79° East 299 344 6,200 -840 Descending FlightAware
04:32PM 40.2090 -75.6780 87° East 296 341 5,700 -1,080 Descending FlightAware
04:33PM 40.2090 -75.6490 90° East 297 342 5,400 -300 Descending FlightAware
04:34PM 40.2130 -75.5240 88° East 293 337 5,300 -120 Descending FlightAware
04:34PM 40.2240 -75.4910 66° East 287 330 5,300  Level FlightAware
04:35PM 40.2470 -75.4390 60° Northeast 290 334 5,300  Level FlightAware
04:35PM 40.2640 -75.4000 60° Northeast 286 329 5,300  Level FlightAware
04:36PM 40.2820 -75.3570 61° Northeast 290 334 5,300  Level FlightAware
04:36PM 40.2950 -75.3280 60° Northeast 289 333 5,300 -480 Level FlightAware
04:37PM 40.3160 -75.2790 61° Northeast 289 333 4,900 -1,200 Descending FlightAware
04:37PM 40.3370 -75.2280 62° Northeast 290 334 4,000 -600 Descending FlightAware
04:39PM 40.4000 -75.0040 70° East 285 328 3,300 -300 Descending FlightAware
04:40PM 40.4150 -74.9510 70° East 288 331 3,300  Level FlightAware
04:40PM 40.4230 -74.9240 69° East 291 335 3,300  Level FlightAware
04:41PM 40.4420 -74.8860 57° Northeast 290 334 3,300  Level FlightAware
04:41PM 40.4590 -74.8430 63° Northeast 289 333 3,300  Level FlightAware
04:41PM 40.4610 -74.8220 83° East 277 319 3,300  Level FlightAware
04:42PM 40.4520 -74.7720 103° East 247 284 3,300  Level FlightAware
04:42PM 40.4450 -74.7570 122° Southeast 242 278 3,300  Level FlightAware
04:42PM 40.4330 -74.7410 135° Southeast 234 269 3,300  Level FlightAware
04:43PM 40.4180 -74.7210 135° Southeast 219 252 3,300  Level FlightAware
04:43PM 40.4100 -74.7140 146° Southeast 214 246 3,300 -420 Level FlightAware
04:43PM 40.3930 -74.7090 167° South 206 237 3,100 -780 Descending FlightAware
04:44PM 40.3720 -74.7060 174° South 201 231 2,800 -660 Descending FlightAware
04:44PM 40.3480 -74.7170 199° South 168 193 2,500 -720 Descending FlightAware
04:45PM 40.3320 -74.7360 222° Southwest 157 181 2,100 -840 Descending FlightAware
04:45PM 40.3230 -74.7480 225° Southwest 151 174 1,900 -900 Descending FlightAware
04:45PM 40.3120 -74.7630 226° Southwest 146 168 1,500 -480 Descending FlightAware
04:46PM 40.3010 -74.7780 226° Southwest 146 168 1,500  Level FlightAware